Rhl Felicitas — A8SV2 — position and weather

sailwx.info

Track history (hours):
 
Tides and Currents Weather Stations Pressure Air Temp Water Temp Dewpoint Dewpoint Depression Visibility Wind Speed Wind Dir Waves Ship Positions

Rhl Felicitas

Last reported at 2014-Oct-28 11:18 UTC. Time now 2014-Oct-31 04:56 UTC.
Position N 01°12' E 103°39'.

Length 294 m; draft 11.2 m.

Type: Ship (hazmat cat D). MMSI: 636091781.

Date/timePositionNaut miles runAvg speedWind from/ knotsBaromVisibWave heightAir tempDewpointWater temp
2014-Oct-28 11:18N 01°12' E 103°39'8 9.9
2014-Oct-28 10:32N 01°17' E 103°45'1 1.1
2014-Oct-28 09:24N 01°17' E 103°46'0 0.0
2014-Oct-28 07:28N 01°17' E 103°46'0 0.0
2014-Oct-28 06:16N 01°17' E 103°46'0 0.0
2014-Oct-28 05:25N 01°17' E 103°46'0 0.0
2014-Oct-28 04:19N 01°17' E 103°46'0 0.0
2014-Oct-28 03:28N 01°17' E 103°46'0 0.0
2014-Oct-28 02:13N 01°17' E 103°46'0 0.0
2014-Oct-28 01:07N 01°17' E 103°46'0 0.0
2014-Oct-27 21:19N 01°17' E 103°46'0 0.0
2014-Oct-27 20:31N 01°17' E 103°46'0 0.0
2014-Oct-27 19:22N 01°17' E 103°46'0 0.0
2014-Oct-27 18:13N 01°17' E 103°46'0 0.0
2014-Oct-27 16:31N 01°17' E 103°46'0 0.0
2014-Oct-27 15:17N 01°17' E 103°46'1 2.0
2014-Oct-27 14:33N 01°17' E 103°45'5 5.5
2014-Oct-27 13:33N 01°13' E 103°49'6 5.7
2014-Oct-27 12:33N 01°14' E 103°54'3 3.5
2014-Oct-27 11:34N 01°15' E 103°57'8 7.4
2014-Oct-27 10:31N 01°16' E 104°05'9 8.8
2014-Oct-27 09:31N 01°18' E 104°14'  
Track history (hours):
 
Tides and Currents Weather Stations Pressure Air Temp Water Temp Dewpoint Dewpoint Depression Visibility Wind Speed Wind Dir Waves Ship Positions

Rhl Felicitas

Last reported at 2014-Oct-28 11:18 UTC. Time now 2014-Oct-31 04:56 UTC.
Position N 01°12' E 103°39'.

Length 294 m; draft 11.2 m.

Type: Ship (hazmat cat D). MMSI: 636091781.

Date/timePositionNaut miles runAvg speedWind from/ knotsBaromVisibWave heightAir tempDewpointWater temp
2014-Oct-28 11:18N 01°12' E 103°39'8 9.9
2014-Oct-28 10:32N 01°17' E 103°45'1 1.1
2014-Oct-28 09:24N 01°17' E 103°46'0 0.0
2014-Oct-28 07:28N 01°17' E 103°46'0 0.0
2014-Oct-28 06:16N 01°17' E 103°46'0 0.0
2014-Oct-28 05:25N 01°17' E 103°46'0 0.0
2014-Oct-28 04:19N 01°17' E 103°46'0 0.0
2014-Oct-28 03:28N 01°17' E 103°46'0 0.0
2014-Oct-28 02:13N 01°17' E 103°46'0 0.0
2014-Oct-28 01:07N 01°17' E 103°46'0 0.0
2014-Oct-27 21:19N 01°17' E 103°46'0 0.0
2014-Oct-27 20:31N 01°17' E 103°46'0 0.0
2014-Oct-27 19:22N 01°17' E 103°46'0 0.0
2014-Oct-27 18:13N 01°17' E 103°46'0 0.0
2014-Oct-27 16:31N 01°17' E 103°46'0 0.0
2014-Oct-27 15:17N 01°17' E 103°46'1 2.0
2014-Oct-27 14:33N 01°17' E 103°45'5 5.5
2014-Oct-27 13:33N 01°13' E 103°49'6 5.7
2014-Oct-27 12:33N 01°14' E 103°54'3 3.5
2014-Oct-27 11:34N 01°15' E 103°57'8 7.4
2014-Oct-27 10:31N 01°16' E 104°05'9 8.8
2014-Oct-27 09:31N 01°18' E 104°14'  

Dump ship's entire track history